Time,TemperatureF,DewpointF,PressureIn,WindDirection,WindDirectionDegrees,WindSpeedMPH,WindSpeedGustMPH,Humidity,HourlyPrecipIn,Conditions,Clouds,dailyrainin,SoftwareType,DateUTC
2013-03-22 00:03:00,35.3,21.6,30.06,East,80,5.8,5.8,57,0.00,SCT,FEW,0.00,WeatherDisplay:10.37,2013-03-22 06:03:00,
2013-03-22 00:08:00,35.3,21.6,30.05,East,88,2.3,2.3,57,0.00,SCT,FEW,0.00,WeatherDisplay:10.37,2013-03-22 06:08:00,
2013-03-22 00:13:00,35.4,21.2,30.06,East,90,2.3,2.3,56,0.00,SCT,FEW,0.00,WeatherDisplay:10.37,2013-03-22 06:13:00,
2013-03-22 00:18:00,35.4,22.1,30.06,ENE,59,5.4,5.4,58,0.00,SCT,FEW,0.00,WeatherDisplay:10.37,2013-03-22 06:18:00,
2013-03-22 00:23:00,35.4,21.7,30.06,ENE,66,3.5,3.5,57,0.00,SCT,FEW,0.00,WeatherDisplay:10.37,2013-03-22 06:23:00,
2013-03-22 00:28:00,35.3,21.6,30.06,East,90,5.8,5.8,57,0.00,SCT,FEW,0.00,WeatherDisplay:10.37,2013-03-22 06:28:00,
2013-03-22 00:33:00,35.3,22.4,30.05,NE,43,1.1,1.6,59,0.00,SCT,FEW,0.00,WeatherDisplay:10.37,2013-03-22 06:33:00,
2013-03-22 00:38:00,35.3,22.0,30.05,ENE,59,3.5,3.5,58,0.00,SCT,FEW,0.00,WeatherDisplay:10.37,2013-03-22 06:38:00,
2013-03-22 00:43:00,35.4,22.1,30.05,SE,142,2.3,2.3,58,0.00,SCT,FEW,0.00,WeatherDisplay:10.37,2013-03-22 06:43:00,
2013-03-22 00:48:00,35.4,21.7,30.05,ESE,121,2.3,2.3,57,0.00,SCT,FEW,0.00,WeatherDisplay:10.37,2013-03-22 06:48:00,
2013-03-22 00:53:00,35.4,22.1,30.06,ENE,78,3.5,3.5,58,0.00,SCT,FEW,0.00,WeatherDisplay:10.37,2013-03-22 06:53:00,
2013-03-22 00:58:00,35.4,22.5,30.06,ENE,76,1.1,1.1,59,0.00,SCT,FEW,0.00,WeatherDisplay:10.37,2013-03-22 06:58:00,
2013-03-22 01:04:00,35.3,21.6,30.06,ENE,77,5.8,5.8,57,0.00,OVC,FEW,0.00,WeatherDisplay:10.37,2013-03-22 07:04:00,
2013-03-22 01:09:00,35.3,22.0,30.06,East,86,5.8,5.8,58,0.00,OVC,FEW,0.00,WeatherDisplay:10.37,2013-03-22 07:09:00,
2013-03-22 01:14:00,35.3,21.6,30.06,ENE,74,3.5,3.5,57,0.00,OVC,FEW,0.00,WeatherDisplay:10.37,2013-03-22 07:14:00,
2013-03-22 01:19:00,35.4,21.7,30.05,ENE,72,8.1,8.1,57,0.00,OVC,FEW,0.00,WeatherDisplay:10.37,2013-03-22 07:19:00,
2013-03-22 01:24:00,35.4,22.1,30.05,ENE,57,1.1,1.1,58,0.00,OVC,FEW,0.00,WeatherDisplay:10.37,2013-03-22 07:24:00,
2013-03-22 01:29:00,35.5,22.2,30.05,NE,53,4.6,4.6,58,0.00,OVC,FEW,0.00,WeatherDisplay:10.37,2013-03-22 07:29:00,
2013-03-22 01:34:00,35.5,21.8,30.05,NNE,30,5.8,5.8,57,0.00,OVC,FEW,0.00,WeatherDisplay:10.37,2013-03-22 07:34:00,
2013-03-22 01:39:00,35.5,22.2,30.05,ENE,61,4.6,4.6,58,0.00,OVC,FEW,0.00,WeatherDisplay:10.37,2013-03-22 07:39:00,
2013-03-22 01:44:00,35.5,21.3,30.05,East,91,3.5,3.5,56,0.00,OVC,FEW,0.00,WeatherDisplay:10.37,2013-03-22 07:44:00,
2013-03-22 01:49:00,35.5,21.8,30.04,East,90,3.5,3.5,57,0.00,OVC,FEW,0.00,WeatherDisplay:10.37,2013-03-22 07:49:00,
2013-03-22 01:54:00,35.5,21.3,30.05,NE,55,4.6,4.6,56,0.00,OVC,FEW,0.00,WeatherDisplay:10.37,2013-03-22 07:54:00,
2013-03-22 01:59:00,35.5,21.8,30.05,SE,139,4.6,4.6,57,0.00,OVC,FEW,0.00,WeatherDisplay:10.37,2013-03-22 07:59:00,
2013-03-22 02:04:00,35.5,21.3,30.05,ESE,119,3.5,3.5,56,0.00,OVC,FEW,0.00,WeatherDisplay:10.37,2013-03-22 08:04:00,
2013-03-22 02:09:00,35.5,21.3,30.05,ENE,63,2.3,2.3,56,0.00,OVC,FEW,0.00,WeatherDisplay:10.37,2013-03-22 08:09:00,
2013-03-22 02:14:00,35.5,21.3,30.05,East,82,3.5,3.5,56,0.00,OVC,FEW,0.00,WeatherDisplay:10.37,2013-03-22 08:14:00,
2013-03-22 02:19:00,35.4,21.2,30.04,East,82,0.0,0.2,56,0.00,OVC,FEW,0.00,WeatherDisplay:10.37,2013-03-22 08:19:00,
2013-03-22 02:24:00,35.4,21.2,30.04,ESE,107,5.8,5.8,56,0.00,OVC,FEW,0.00,WeatherDisplay:10.37,2013-03-22 08:24:00,
2013-03-22 02:29:00,35.4,21.2,30.04,ENE,69,3.5,3.5,56,0.00,OVC,FEW,0.00,WeatherDisplay:10.37,2013-03-22 08:29:00,
2013-03-22 02:34:00,35.4,21.2,30.04,NE,56,3.5,3.5,56,0.00,OVC,FEW,0.00,WeatherDisplay:10.37,2013-03-22 08:34:00,
2013-03-22 02:39:00,35.3,20.7,30.04,ESE,121,2.3,2.3,55,0.00,OVC,FEW,0.00,WeatherDisplay:10.37,2013-03-22 08:39:00,
2013-03-22 02:44:00,35.3,22.0,30.04,East,81,2.3,2.3,58,0.00,OVC,FEW,0.00,WeatherDisplay:10.37,2013-03-22 08:44:00,
2013-03-22 02:49:00,35.3,21.2,30.04,ESE,107,3.5,3.5,56,0.00,OVC,FEW,0.00,WeatherDisplay:10.37,2013-03-22 08:49:00,
2013-03-22 02:54:00,35.4,21.2,30.04,ENE,62,2.3,2.3,56,0.00,OVC,FEW,0.00,WeatherDisplay:10.37,2013-03-22 08:54:00,
2013-03-22 02:59:00,35.3,21.2,30.04,ENE,62,3.5,3.5,56,0.00,OVC,FEW,0.00,WeatherDisplay:10.37,2013-03-22 08:59:00,
2013-03-22 03:04:00,35.3,21.6,30.04,East,84,6.9,6.9,57,0.00,OVC,FEW,0.00,WeatherDisplay:10.37,2013-03-22 09:04:00,
2013-03-22 03:09:00,35.3,21.6,30.04,East,80,4.6,4.6,57,0.00,OVC,FEW,0.00,WeatherDisplay:10.37,2013-03-22 09:09:00,
2013-03-22 03:14:00,35.3,21.6,30.04,East,79,2.3,2.3,57,0.00,OVC,FEW,0.00,WeatherDisplay:10.37,2013-03-22 09:14:00,
2013-03-22 03:19:00,35.2,21.1,30.04,ENE,65,5.8,5.8,56,0.00,OVC,FEW,0.00,WeatherDisplay:10.37,2013-03-22 09:19:00,
2013-03-22 03:24:00,35.2,21.5,30.04,ENE,74,4.6,4.6,57,0.00,OVC,FEW,0.00,WeatherDisplay:10.37,2013-03-22 09:24:00,
2013-03-22 03:29:00,35.2,21.9,30.04,ENE,74,2.3,2.3,58,0.00,OVC,FEW,0.00,WeatherDisplay:10.37,2013-03-22 09:29:00,
2013-03-22 03:34:00,35.2,21.9,30.04,NE,52,3.5,3.5,58,0.00,OVC,FEW,0.00,WeatherDisplay:10.37,2013-03-22 09:34:00,
2013-03-22 03:39:00,35.1,21.0,30.04,East,88,3.5,3.5,56,0.00,OVC,FEW,0.00,WeatherDisplay:10.37,2013-03-22 09:39:00,
2013-03-22 03:44:00,35.1,21.0,30.03,East,99,3.5,3.5,56,0.00,OVC,FEW,0.00,WeatherDisplay:10.37,2013-03-22 09:44:00,
2013-03-22 03:49:00,35.2,21.9,30.03,East,86,8.1,8.1,58,0.00,OVC,FEW,0.00,WeatherDisplay:10.37,2013-03-22 09:49:00,
2013-03-22 03:54:00,35.2,21.9,30.03,ENE,67,2.3,2.3,58,0.00,OVC,FEW,0.00,WeatherDisplay:10.37,2013-03-22 09:54:00,
2013-03-22 03:59:00,35.2,21.9,30.03,ENE,73,3.5,3.5,58,0.00,OVC,FEW,0.00,WeatherDisplay:10.37,2013-03-22 09:59:00,
2013-03-22 04:04:00,35.2,21.5,30.03,ENE,64,3.5,3.5,57,0.00,OVC,FEW,0.00,WeatherDisplay:10.37,2013-03-22 10:04:00,
2013-03-22 04:09:00,35.2,21.5,30.03,East,101,5.8,5.8,57,0.00,OVC,FEW,0.00,WeatherDisplay:10.37,2013-03-22 10:09:00,
2013-03-22 04:14:00,35.1,21.8,30.02,ENE,78,3.2,3.2,58,0.00,OVC,FEW,0.00,WeatherDisplay:10.37,2013-03-22 10:14:00,
2013-03-22 04:19:00,35.2,21.9,30.02,ENE,74,3.5,3.5,58,0.00,OVC,FEW,0.00,WeatherDisplay:10.37,2013-03-22 10:19:00,
2013-03-22 04:24:00,35.2,21.9,30.03,NE,51,3.5,3.5,58,0.00,OVC,FEW,0.00,WeatherDisplay:10.37,2013-03-22 10:24:00,
2013-03-22 04:29:00,35.2,21.5,30.03,East,80,3.5,3.5,57,0.00,OVC,FEW,0.00,WeatherDisplay:10.37,2013-03-22 10:29:00,
2013-03-22 04:34:00,35.2,21.9,30.03,ESE,111,3.5,3.5,58,0.00,OVC,FEW,0.00,WeatherDisplay:10.37,2013-03-22 10:34:00,
2013-03-22 04:39:00,35.2,21.5,30.03,ENE,71,8.1,8.1,57,0.00,OVC,FEW,0.00,WeatherDisplay:10.37,2013-03-22 10:39:00,
2013-03-22 04:44:00,35.2,21.9,30.03,East,80,4.6,4.6,58,0.00,OVC,FEW,0.00,WeatherDisplay:10.37,2013-03-22 10:44:00,
2013-03-22 04:49:00,35.2,21.9,30.03,NE,47,3.5,3.5,58,0.00,OVC,FEW,0.00,WeatherDisplay:10.37,2013-03-22 10:49:00,
2013-03-22 04:54:00,35.3,21.6,30.03,NE,55,3.2,3.2,57,0.00,OVC,FEW,0.00,WeatherDisplay:10.37,2013-03-22 10:54:00,
2013-03-22 04:59:00,35.3,22.0,30.04,ENE,58,3.5,3.5,58,0.00,OVC,FEW,0.00,WeatherDisplay:10.37,2013-03-22 10:59:00,
2013-03-22 05:04:00,35.3,21.2,30.04,South,191,3.5,3.5,56,0.00,OVC,FEW,0.00,WeatherDisplay:10.37,2013-03-22 11:04:00,
2013-03-22 05:09:00,35.3,21.6,30.05,ENE,71,3.2,3.2,57,0.00,OVC,FEW,0.00,WeatherDisplay:10.37,2013-03-22 11:09:00,
2013-03-22 05:14:00,35.3,21.6,30.05,East,87,6.9,6.9,57,0.00,OVC,FEW,0.00,WeatherDisplay:10.37,2013-03-22 11:14:00,
2013-03-22 05:19:00,35.3,22.0,30.05,East,88,3.5,3.5,58,0.00,OVC,FEW,0.00,WeatherDisplay:10.37,2013-03-22 11:19:00,
2013-03-22 05:24:00,35.4,21.7,30.05,ESE,123,2.3,2.4,57,0.00,OVC,FEW,0.00,WeatherDisplay:10.37,2013-03-22 11:24:00,
2013-03-22 05:29:00,35.4,21.7,30.05,East,93,6.9,6.9,57,0.00,OVC,FEW,0.00,WeatherDisplay:10.37,2013-03-22 11:29:00,
2013-03-22 05:34:00,35.4,21.7,30.05,ENE,74,5.8,5.8,57,0.00,OVC,FEW,0.00,WeatherDisplay:10.37,2013-03-22 11:34:00,
2013-03-22 05:39:00,35.4,21.7,30.05,ENE,74,5.8,5.8,57,0.00,OVC,FEW,0.00,WeatherDisplay:10.37,2013-03-22 11:39:00,
2013-03-22 05:44:00,35.4,22.5,30.05,ESE,103,3.5,3.5,59,0.00,OVC,FEW,0.00,WeatherDisplay:10.37,2013-03-22 11:44:00,
2013-03-22 05:49:00,35.5,22.6,30.05,SE,130,2.3,2.3,59,0.00,OVC,FEW,0.00,WeatherDisplay:10.37,2013-03-22 11:49:00,
2013-03-22 05:54:00,35.4,21.7,30.05,ENE,77,2.3,2.3,57,0.00,OVC,FEW,0.00,WeatherDisplay:10.37,2013-03-22 11:54:00,
2013-03-22 05:59:00,35.5,22.2,30.05,ENE,65,5.8,5.8,58,0.00,OVC,FEW,0.00,WeatherDisplay:10.37,2013-03-22 11:59:00,
2013-03-22 06:04:00,35.5,21.8,30.05,ESE,111,4.6,4.6,57,0.00,OVC,FEW,0.00,WeatherDisplay:10.37,2013-03-22 12:04:00,
2013-03-22 06:09:00,35.5,22.2,30.05,SE,137,3.5,3.5,58,0.00,OVC,FEW,0.00,WeatherDisplay:10.37,2013-03-22 12:09:00,
2013-03-22 06:14:00,35.6,22.3,30.05,ESE,123,2.3,2.3,58,0.00,OVC,FEW,0.00,WeatherDisplay:10.37,2013-03-22 12:14:00,
2013-03-22 06:19:00,35.6,21.9,30.05,ESE,105,2.3,2.3,57,0.00,OVC,FEW,0.00,WeatherDisplay:10.37,2013-03-22 12:19:00,
2013-03-22 06:25:00,35.7,21.9,30.06,SE,129,2.3,2.3,57,0.00,OVC,FEW,0.00,WeatherDisplay:10.37,2013-03-22 12:25:00,
2013-03-22 06:30:00,35.7,21.9,30.06,SE,136,4.6,4.6,57,0.00,OVC,FEW,0.00,WeatherDisplay:10.37,2013-03-22 12:30:00,
2013-03-22 06:35:00,35.8,22.0,30.06,ENE,58,5.8,5.8,57,0.00,OVC,FEW,0.00,WeatherDisplay:10.37,2013-03-22 12:35:00,
2013-03-22 06:40:00,35.8,22.0,30.06,SE,132,1.1,0.0,57,0.00,OVC,FEW,0.00,WeatherDisplay:10.37,2013-03-22 12:40:00,
2013-03-22 06:45:00,35.9,22.5,30.06,East,83,1.1,1.1,58,0.00,OVC,FEW,0.00,WeatherDisplay:10.37,2013-03-22 12:45:00,
2013-03-22 06:50:00,35.9,21.7,30.06,SSE,153,5.8,5.8,56,0.00,OVC,FEW,0.00,WeatherDisplay:10.37,2013-03-22 12:50:00,
2013-03-22 06:55:00,36.0,22.2,30.06,ESE,117,1.1,1.1,57,0.00,OVC,FEW,0.00,WeatherDisplay:10.37,2013-03-22 12:55:00,
2013-03-22 07:00:00,36.1,21.9,30.05,ESE,105,4.6,4.6,56,0.00,OVC,FEW,0.00,WeatherDisplay:10.37,2013-03-22 13:00:00,
2013-03-22 07:05:00,36.1,21.9,30.06,NE,51,2.3,2.3,56,0.00,OVC,FEW,0.00,WeatherDisplay:10.37,2013-03-22 13:05:00,
2013-03-22 07:10:00,36.2,22.0,30.06,SE,134,2.3,2.3,56,0.00,OVC,FEW,0.00,WeatherDisplay:10.37,2013-03-22 13:10:00,
2013-03-22 07:15:00,36.2,22.4,30.06,East,97,2.3,2.3,57,0.00,OVC,FEW,0.00,WeatherDisplay:10.37,2013-03-22 13:15:00,
2013-03-22 07:20:00,36.3,22.5,30.06,ENE,78,2.3,2.3,57,0.00,OVC,FEW,0.00,WeatherDisplay:10.37,2013-03-22 13:20:00,
2013-03-22 07:25:00,36.4,22.6,30.06,East,91,2.3,2.3,57,0.00,OVC,FEW,0.00,WeatherDisplay:10.37,2013-03-22 13:25:00,
2013-03-22 07:30:00,36.6,22.8,30.06,East,86,2.3,2.3,57,0.00,OVC,FEW,0.00,WeatherDisplay:10.37,2013-03-22 13:30:00,
2013-03-22 07:35:00,36.7,22.5,30.05,NE,43,3.5,3.5,56,0.00,OVC,FEW,0.00,WeatherDisplay:10.37,2013-03-22 13:35:00,
2013-03-22 07:40:00,36.7,22.5,30.06,NE,54,5.8,5.8,56,0.00,OVC,FEW,0.00,WeatherDisplay:10.37,2013-03-22 13:40:00,
2013-03-22 07:45:00,36.8,23.0,30.06,ENE,70,1.1,1.1,57,0.00,OVC,FEW,0.00,WeatherDisplay:10.37,2013-03-22 13:45:00,
2013-03-22 07:50:00,36.8,22.6,30.06,ENE,78,2.1,2.1,56,0.00,OVC,FEW,0.00,WeatherDisplay:10.37,2013-03-22 13:50:00,
2013-03-22 07:55:00,36.9,22.7,30.05,East,87,3.5,3.5,56,0.00,OVC,FEW,0.00,WeatherDisplay:10.37,2013-03-22 13:55:00,
2013-03-22 08:00:00,37.0,22.3,30.05,East,96,5.8,5.8,55,0.00,OVC,FEW,0.00,WeatherDisplay:10.37,2013-03-22 14:00:00,
2013-03-22 08:05:00,37.1,22.4,30.05,East,86,5.8,5.8,55,0.00,BKN,FEW,0.00,WeatherDisplay:10.37,2013-03-22 14:05:00,
2013-03-22 08:10:00,37.1,22.0,30.05,ESE,115,5.8,5.8,54,0.00,BKN,FEW,0.00,WeatherDisplay:10.37,2013-03-22 14:10:00,
2013-03-22 08:15:00,37.3,22.6,30.05,SE,128,3.5,3.5,55,0.00,BKN,FEW,0.00,WeatherDisplay:10.37,2013-03-22 14:15:00,
2013-03-22 08:20:00,37.4,22.3,30.05,ENE,67,2.3,2.3,54,0.00,BKN,FEW,0.00,WeatherDisplay:10.37,2013-03-22 14:20:00,
2013-03-22 08:25:00,37.6,22.4,30.05,SE,132,4.6,4.6,54,0.00,BKN,FEW,0.00,WeatherDisplay:10.37,2013-03-22 14:25:00,
2013-03-22 08:30:00,37.7,22.1,30.06,ESE,118,3.5,3.5,53,0.00,BKN,FEW,0.00,WeatherDisplay:10.37,2013-03-22 14:30:00,
2013-03-22 08:35:00,37.8,22.6,30.05,ESE,103,2.3,2.3,54,0.00,BKN,FEW,0.00,WeatherDisplay:10.37,2013-03-22 14:35:00,
2013-03-22 08:40:00,37.9,22.7,30.05,ESE,109,4.6,4.6,54,0.00,BKN,FEW,0.00,WeatherDisplay:10.37,2013-03-22 14:40:00,
2013-03-22 08:45:00,38.1,22.5,30.05,ENE,67,8.1,8.1,53,0.00,BKN,FEW,0.00,WeatherDisplay:10.37,2013-03-22 14:45:00,
2013-03-22 08:50:00,38.1,22.5,30.05,ESE,122,8.1,8.1,53,0.00,BKN,FEW,0.00,WeatherDisplay:10.37,2013-03-22 14:50:00,
2013-03-22 08:55:00,38.3,22.6,30.05,East,101,1.1,1.1,53,0.00,BKN,FEW,0.00,WeatherDisplay:10.37,2013-03-22 14:55:00,
2013-03-22 09:00:00,38.5,21.9,30.05,SE,135,2.3,2.3,51,0.00,BKN,FEW,0.00,WeatherDisplay:10.37,2013-03-22 15:00:00,
2013-03-22 09:05:00,38.7,23.0,30.05,ESE,113,2.3,2.3,53,0.00,BKN,FEW,0.00,WeatherDisplay:10.37,2013-03-22 15:05:00,
2013-03-22 09:10:00,38.9,22.3,30.05,ENE,76,5.8,5.8,51,0.00,BKN,FEW,0.00,WeatherDisplay:10.37,2013-03-22 15:10:00,
2013-03-22 09:15:00,38.9,22.3,30.05,ENE,65,8.1,8.1,51,0.00,BKN,FEW,0.00,WeatherDisplay:10.37,2013-03-22 15:15:00,
2013-03-22 09:20:00,39.1,22.9,30.06,NE,55,6.4,6.4,52,0.00,OVC,FEW,0.00,WeatherDisplay:10.37,2013-03-22 15:20:00,
2013-03-22 09:25:00,39.1,22.5,30.06,ENE,70,6.9,6.9,51,0.00,OVC,FEW,0.00,WeatherDisplay:10.37,2013-03-22 15:25:00,
2013-03-22 09:30:00,39.2,22.6,30.05,ENE,78,6.9,6.9,51,0.00,OVC,FEW,0.00,WeatherDisplay:10.37,2013-03-22 15:30:00,
2013-03-22 09:35:00,39.3,23.1,30.06,ENE,63,5.8,5.8,52,0.00,OVC,FEW,0.00,WeatherDisplay:10.37,2013-03-22 15:35:00,
2013-03-22 09:40:00,39.5,22.8,30.05,ENE,76,4.6,4.6,51,0.00,OVC,FEW,0.00,WeatherDisplay:10.37,2013-03-22 15:40:00,
2013-03-22 09:45:00,39.6,22.9,30.05,ESE,102,5.8,5.8,51,0.00,OVC,FEW,0.00,WeatherDisplay:10.37,2013-03-22 15:45:00,
2013-03-22 09:50:00,39.7,22.6,30.05,ENE,76,2.3,2.3,50,0.00,OVC,FEW,0.00,WeatherDisplay:10.37,2013-03-22 15:50:00,
2013-03-22 09:55:00,40.0,23.3,30.06,ESE,115,2.3,2.3,51,0.00,OVC,FEW,0.00,WeatherDisplay:10.37,2013-03-22 15:55:00,
2013-03-22 10:00:00,40.2,23.0,30.06,ENE,69,8.1,8.1,50,0.00,OVC,FEW,0.00,WeatherDisplay:10.37,2013-03-22 16:00:00,
2013-03-22 10:05:00,40.4,23.7,30.05,SE,133,4.6,4.6,51,0.00,OVC,FEW,0.00,WeatherDisplay:10.37,2013-03-22 16:05:00,
2013-03-22 10:10:00,40.8,23.6,30.05,NE,44,2.3,2.3,50,0.00,OVC,FEW,0.00,WeatherDisplay:10.37,2013-03-22 16:10:00,
2013-03-22 10:15:00,41.2,23.5,30.05,ESE,107,3.5,3.5,49,0.00,OVC,FEW,0.00,WeatherDisplay:10.37,2013-03-22 16:15:00,
2013-03-22 10:20:00,41.5,23.7,30.05,ESE,120,2.3,2.3,49,0.00,OVC,FEW,0.00,WeatherDisplay:10.37,2013-03-22 16:20:00,
2013-03-22 10:25:00,41.7,22.9,30.05,East,91,4.6,4.6,47,0.00,OVC,FEW,0.00,WeatherDisplay:10.37,2013-03-22 16:25:00,
2013-03-22 10:30:00,41.8,22.5,30.05,ESE,103,3.5,3.5,46,0.00,OVC,FEW,0.00,WeatherDisplay:10.37,2013-03-22 16:30:00,
2013-03-22 10:35:00,41.9,23.1,30.05,East,93,3.5,3.5,47,0.00,OVC,FEW,0.00,WeatherDisplay:10.37,2013-03-22 16:35:00,
2013-03-22 10:40:00,42.0,23.2,30.05,ESE,118,3.5,3.5,47,0.00,OVC,FEW,0.00,WeatherDisplay:10.37,2013-03-22 16:40:00,
2013-03-22 10:45:00,42.2,23.4,30.05,East,79,8.1,8.1,47,0.00,OVC,FEW,0.00,WeatherDisplay:10.37,2013-03-22 16:45:00,
2013-03-22 10:50:00,42.2,23.4,30.05,ENE,70,4.3,4.3,47,0.00,OVC,FEW,0.00,WeatherDisplay:10.37,2013-03-22 16:50:00,
2013-03-22 10:55:00,42.2,23.9,30.05,SE,135,4.6,4.6,48,0.00,OVC,FEW,0.00,WeatherDisplay:10.37,2013-03-22 16:55:00,
2013-03-22 11:00:00,42.3,24.0,30.06,SE,136,2.3,2.3,48,0.00,OVC,FEW,0.00,WeatherDisplay:10.37,2013-03-22 17:00:00,
2013-03-22 11:05:00,42.3,24.5,30.06,SE,139,1.1,1.1,49,0.00,OVC,FEW,0.00,WeatherDisplay:10.37,2013-03-22 17:05:00,
2013-03-22 11:10:00,42.3,23.5,30.06,East,92,3.5,3.5,47,0.00,OVC,FEW,0.00,WeatherDisplay:10.37,2013-03-22 17:10:00,
2013-03-22 11:15:00,42.1,24.3,30.06,East,93,1.1,1.1,49,0.00,OVC,FEW,0.00,WeatherDisplay:10.37,2013-03-22 17:15:00,
2013-03-22 11:20:00,42.2,24.4,30.06,SSE,151,2.3,2.3,49,0.00,OVC,FEW,0.00,WeatherDisplay:10.37,2013-03-22 17:20:00,
2013-03-22 11:25:00,42.2,24.4,30.05,ESE,102,3.5,3.5,49,0.00,OVC,FEW,0.00,WeatherDisplay:10.37,2013-03-22 17:25:00,
2013-03-22 11:30:00,42.2,23.9,30.05,ENE,68,3.5,3.5,48,0.00,OVC,FEW,0.00,WeatherDisplay:10.37,2013-03-22 17:30:00,
2013-03-22 11:36:00,42.2,24.4,30.05,ESE,115,3.5,3.5,49,0.00,OVC,FEW,0.00,WeatherDisplay:10.37,2013-03-22 17:36:00,
2013-03-22 11:41:00,42.3,24.0,30.05,ESE,102,0.0,0.0,48,0.00,OVC,FEW,0.00,WeatherDisplay:10.37,2013-03-22 17:41:00,
2013-03-22 11:46:00,42.3,24.0,30.05,SE,139,3.5,3.5,48,0.00,OVC,FEW,0.00,WeatherDisplay:10.37,2013-03-22 17:46:00,
2013-03-22 11:51:00,42.4,24.1,30.05,East,81,2.3,2.4,48,0.00,OVC,FEW,0.00,WeatherDisplay:10.37,2013-03-22 17:51:00,
2013-03-22 11:56:00,42.5,24.7,30.05,NE,41,4.3,4.3,49,0.00,OVC,FEW,0.00,WeatherDisplay:10.37,2013-03-22 17:56:00,
2013-03-22 12:01:00,42.7,23.8,30.05,ENE,78,3.5,3.5,47,0.00,OVC,FEW,0.00,WeatherDisplay:10.37,2013-03-22 18:01:00,
2013-03-22 12:06:00,42.7,23.8,30.05,SE,144,2.3,2.3,47,0.00,OVC,FEW,0.00,WeatherDisplay:10.37,2013-03-22 18:06:00,
2013-03-22 12:11:00,43.1,24.2,30.05,East,98,4.6,4.6,47,0.00,OVC,FEW,0.00,WeatherDisplay:10.37,2013-03-22 18:11:00,
2013-03-22 12:16:00,43.2,24.3,30.04,East,92,2.3,2.3,47,0.00,OVC,FEW,0.00,WeatherDisplay:10.37,2013-03-22 18:16:00,
2013-03-22 12:21:00,43.3,24.4,30.04,East,96,2.3,2.3,47,0.00,OVC,FEW,0.00,WeatherDisplay:10.37,2013-03-22 18:21:00,
2013-03-22 12:26:00,43.5,24.6,30.04,SSE,149,2.3,2.3,47,0.00,OVC,FEW,0.00,WeatherDisplay:10.37,2013-03-22 18:26:00,
2013-03-22 12:31:00,43.7,24.8,30.04,ENE,57,2.3,2.3,47,0.00,OVC,FEW,0.00,WeatherDisplay:10.37,2013-03-22 18:31:00,
2013-03-22 12:36:00,43.8,24.3,30.04,East,86,3.5,3.5,46,0.00,OVC,FEW,0.00,WeatherDisplay:10.37,2013-03-22 18:36:00,
2013-03-22 12:41:00,43.9,24.9,30.03,SE,130,2.3,2.3,47,0.00,OVC,FEW,0.00,WeatherDisplay:10.37,2013-03-22 18:41:00,
2013-03-22 12:46:00,44.1,24.6,30.03,East,97,3.5,3.5,46,0.00,OVC,FEW,0.00,WeatherDisplay:10.37,2013-03-22 18:46:00,
2013-03-22 12:51:00,44.4,24.4,30.03,ENE,61,3.5,3.5,45,0.00,OVC,FEW,0.00,WeatherDisplay:10.37,2013-03-22 18:51:00,
2013-03-22 12:57:00,44.6,24.0,30.03,ENE,71,5.8,5.8,44,0.00,OVC,FEW,0.00,WeatherDisplay:10.37,2013-03-22 18:57:00,
2013-03-22 13:02:00,44.5,23.9,30.02,SE,139,3.5,3.6,44,0.00,OVC,FEW,0.00,WeatherDisplay:10.37,2013-03-22 19:02:00,
2013-03-22 13:07:00,44.5,24.5,30.02,SSE,151,2.3,2.3,45,0.00,OVC,FEW,0.00,WeatherDisplay:10.37,2013-03-22 19:07:00,
2013-03-22 13:12:00,44.8,24.7,30.02,East,80,2.3,2.3,45,0.00,OVC,FEW,0.00,WeatherDisplay:10.37,2013-03-22 19:12:00,
2013-03-22 13:17:00,45.0,24.9,30.02,South,178,4.6,4.6,45,0.00,OVC,FEW,0.00,WeatherDisplay:10.37,2013-03-22 19:17:00,
2013-03-22 13:22:00,45.0,24.9,30.01,ENE,76,4.6,4.6,45,0.00,OVC,FEW,0.00,WeatherDisplay:10.37,2013-03-22 19:22:00,
2013-03-22 13:27:00,44.9,24.8,30.01,East,85,5.8,5.8,45,0.00,OVC,FEW,0.00,WeatherDisplay:10.37,2013-03-22 19:27:00,
2013-03-22 13:32:00,45.0,24.9,30.01,NE,55,4.3,4.3,45,0.00,OVC,FEW,0.00,WeatherDisplay:10.37,2013-03-22 19:32:00,
2013-03-22 13:37:00,45.2,25.6,30.01,ESE,107,3.2,3.2,46,0.00,OVC,FEW,0.00,WeatherDisplay:10.37,2013-03-22 19:37:00,
2013-03-22 13:42:00,45.3,24.6,30.00,East,96,4.6,4.6,44,0.00,OVC,FEW,0.00,WeatherDisplay:10.37,2013-03-22 19:42:00,
2013-03-22 13:47:00,45.1,24.5,30.00,ENE,62,5.8,5.8,44,0.00,OVC,FEW,0.00,WeatherDisplay:10.37,2013-03-22 19:47:00,
2013-03-22 13:53:00,45.0,24.9,30.00,NE,42,5.8,5.8,45,0.00,OVC,FEW,0.00,WeatherDisplay:10.37,2013-03-22 19:53:00,
2013-03-22 13:58:00,45.0,25.4,30.00,SE,137,3.5,3.5,46,0.00,OVC,FEW,0.00,WeatherDisplay:10.37,2013-03-22 19:58:00,
2013-03-22 14:03:00,45.2,25.1,30.00,SSE,161,3.5,3.5,45,0.00,OVC,FEW,0.00,WeatherDisplay:10.37,2013-03-22 20:03:00,
2013-03-22 14:08:00,45.2,24.6,30.00,ENE,64,3.5,3.5,44,0.00,OVC,FEW,0.00,WeatherDisplay:10.37,2013-03-22 20:08:00,
2013-03-22 14:13:00,45.2,25.1,30.00,SE,145,2.3,2.3,45,0.00,OVC,FEW,0.00,WeatherDisplay:10.37,2013-03-22 20:13:00,
2013-03-22 14:18:00,45.3,25.2,30.00,ENE,77,3.5,3.5,45,0.00,OVC,FEW,0.00,WeatherDisplay:10.37,2013-03-22 20:18:00,
2013-03-22 14:23:00,45.5,25.9,29.99,ENE,61,2.3,2.3,46,0.00,OVC,FEW,0.00,WeatherDisplay:10.37,2013-03-22 20:23:00,
2013-03-22 14:28:00,45.6,25.5,29.99,ESE,114,2.3,2.3,45,0.00,OVC,FEW,0.00,WeatherDisplay:10.37,2013-03-22 20:28:00,
2013-03-22 14:33:00,45.7,25.5,29.99,East,92,3.5,3.5,45,0.00,OVC,FEW,0.00,WeatherDisplay:10.37,2013-03-22 20:33:00,
2013-03-22 14:38:00,45.6,25.5,29.99,ENE,76,8.1,8.1,45,0.00,OVC,FEW,0.00,WeatherDisplay:10.37,2013-03-22 20:38:00,
2013-03-22 14:43:00,45.5,24.8,29.99,NE,45,6.9,6.9,44,0.00,OVC,FEW,0.00,WeatherDisplay:10.37,2013-03-22 20:43:00,
2013-03-22 14:48:00,45.5,25.4,29.99,East,96,8.1,8.1,45,0.00,OVC,FEW,0.00,WeatherDisplay:10.37,2013-03-22 20:48:00,
2013-03-22 14:53:00,45.6,25.5,29.99,ESE,105,5.8,5.8,45,0.00,OVC,FEW,0.00,WeatherDisplay:10.37,2013-03-22 20:53:00,
2013-03-22 14:58:00,45.8,25.6,29.99,ENE,75,5.8,5.8,45,0.00,OVC,FEW,0.00,WeatherDisplay:10.37,2013-03-22 20:58:00,
2013-03-22 15:03:00,45.9,26.3,29.99,ESE,113,3.5,3.5,46,0.00,OVC,FEW,0.00,WeatherDisplay:10.37,2013-03-22 21:03:00,
2013-03-22 15:08:00,46.1,25.9,29.99,NE,46,8.1,8.1,45,0.00,OVC,FEW,0.00,WeatherDisplay:10.37,2013-03-22 21:08:00,
2013-03-22 15:13:00,46.1,25.9,29.99,ENE,70,3.5,3.5,45,0.00,OVC,FEW,0.00,WeatherDisplay:10.37,2013-03-22 21:13:00,
2013-03-22 15:18:00,46.2,26.0,29.99,ENE,68,5.8,5.8,45,0.00,OVC,FEW,0.00,WeatherDisplay:10.37,2013-03-22 21:18:00,
2013-03-22 15:23:00,46.4,26.7,29.99,ESE,102,5.8,5.8,46,0.00,OVC,FEW,0.00,WeatherDisplay:10.37,2013-03-22 21:23:00,
2013-03-22 15:28:00,46.6,26.4,29.99,SE,131,4.6,4.6,45,0.00,OVC,FEW,0.00,WeatherDisplay:10.37,2013-03-22 21:28:00,
2013-03-22 15:33:00,46.8,26.0,29.99,SE,128,3.5,3.5,44,0.00,OVC,FEW,0.00,WeatherDisplay:10.37,2013-03-22 21:33:00,
2013-03-22 15:38:00,46.9,26.1,29.99,ESE,115,4.6,4.6,44,0.00,OVC,FEW,0.00,WeatherDisplay:10.37,2013-03-22 21:38:00,
2013-03-22 15:43:00,46.9,26.1,29.99,NNE,29,5.8,5.8,44,0.00,OVC,FEW,0.00,WeatherDisplay:10.37,2013-03-22 21:43:00,
2013-03-22 15:48:00,46.9,26.6,29.99,SSE,155,5.8,5.8,45,0.00,OVC,FEW,0.00,WeatherDisplay:10.37,2013-03-22 21:48:00,
2013-03-22 15:53:00,46.8,27.1,29.99,ENE,61,3.5,3.5,46,0.00,OVC,FEW,0.00,WeatherDisplay:10.37,2013-03-22 21:53:00,
2013-03-22 15:58:00,46.7,26.5,29.99,SE,138,3.5,3.5,45,0.00,OVC,FEW,0.00,WeatherDisplay:10.37,2013-03-22 21:58:00,
2013-03-22 16:03:00,46.5,26.3,29.99,East,82,4.6,4.6,45,0.00,OVC,FEW,0.00,WeatherDisplay:10.37,2013-03-22 22:03:00,
2013-03-22 16:08:00,46.4,26.7,29.99,East,91,4.6,4.6,46,0.00,OVC,FEW,0.00,WeatherDisplay:10.37,2013-03-22 22:08:00,
2013-03-22 16:13:00,46.4,26.2,29.99,NE,39,4.6,4.6,45,0.00,OVC,FEW,0.00,WeatherDisplay:10.37,2013-03-22 22:13:00,
2013-03-22 16:18:00,46.3,26.1,29.99,East,92,3.5,3.5,45,0.00,OVC,FEW,0.00,WeatherDisplay:10.37,2013-03-22 22:18:00,
2013-03-22 16:23:00,46.3,26.6,29.99,ENE,74,2.3,2.3,46,0.00,OVC,FEW,0.00,WeatherDisplay:10.37,2013-03-22 22:23:00,
2013-03-22 16:28:00,46.2,27.1,29.99,ENE,76,5.8,5.8,47,0.00,OVC,FEW,0.00,WeatherDisplay:10.37,2013-03-22 22:28:00,
2013-03-22 16:33:00,46.1,26.4,29.99,ENE,59,3.5,3.5,46,0.00,OVC,FEW,0.00,WeatherDisplay:10.37,2013-03-22 22:33:00,
2013-03-22 16:38:00,46.1,27.0,29.99,NE,54,5.8,5.8,47,0.00,OVC,FEW,0.00,WeatherDisplay:10.37,2013-03-22 22:38:00,
2013-03-22 16:44:00,46.0,26.4,29.99,ENE,75,4.6,4.6,46,0.00,OVC,FEW,0.00,WeatherDisplay:10.37,2013-03-22 22:44:00,
2013-03-22 16:49:00,46.0,27.4,29.99,ESE,105,2.3,2.3,48,0.00,OVC,FEW,0.00,WeatherDisplay:10.37,2013-03-22 22:49:00,
2013-03-22 16:54:00,46.0,27.4,29.99,ENE,71,3.5,3.5,48,0.00,OVC,FEW,0.00,WeatherDisplay:10.37,2013-03-22 22:54:00,
2013-03-22 16:59:00,45.9,28.3,29.99,ENE,68,2.3,2.3,50,0.00,OVC,FEW,0.00,WeatherDisplay:10.37,2013-03-22 22:59:00,
2013-03-22 17:04:00,45.8,27.2,30.00,East,84,4.6,4.6,48,0.00,OVC,FEW,0.00,WeatherDisplay:10.37,2013-03-22 23:04:00,
2013-03-22 17:09:00,45.7,27.1,30.00,ENE,76,3.2,3.2,48,0.00,OVC,FEW,0.00,WeatherDisplay:10.37,2013-03-22 23:09:00,
2013-03-22 17:14:00,45.7,27.6,30.00,ENE,59,3.5,3.5,49,0.00,OVC,FEW,0.00,WeatherDisplay:10.37,2013-03-22 23:14:00,
2013-03-22 17:19:00,45.6,28.0,30.00,ENE,63,3.5,3.5,50,0.00,OVC,FEW,0.00,WeatherDisplay:10.37,2013-03-22 23:19:00,
2013-03-22 17:24:00,45.6,28.0,30.00,ENE,77,3.5,3.5,50,0.00,OVC,FEW,0.00,WeatherDisplay:10.37,2013-03-22 23:24:00,
2013-03-22 17:29:00,45.5,27.4,30.00,East,98,5.8,5.8,49,0.00,OVC,FEW,0.00,WeatherDisplay:10.37,2013-03-22 23:29:00,
2013-03-22 17:34:00,45.4,27.3,30.00,East,96,5.8,5.8,49,0.00,OVC,FEW,0.00,WeatherDisplay:10.37,2013-03-22 23:34:00,
2013-03-22 17:39:00,45.4,27.8,30.00,ENE,67,7.5,7.5,50,0.00,OVC,FEW,0.00,WeatherDisplay:10.37,2013-03-22 23:39:00,
2013-03-22 17:44:00,45.3,26.7,30.00,NE,47,5.8,5.8,48,0.00,OVC,FEW,0.00,WeatherDisplay:10.37,2013-03-22 23:44:00,
2013-03-22 17:49:00,45.2,26.7,30.00,SE,126,6.9,6.9,48,0.00,OVC,FEW,0.00,WeatherDisplay:10.37,2013-03-22 23:49:00,
2013-03-22 17:54:00,45.2,28.1,30.00,ENE,75,2.3,2.3,51,0.00,OVC,FEW,0.00,WeatherDisplay:10.37,2013-03-22 23:54:00,
2013-03-22 17:59:00,45.1,27.6,30.00,ENE,66,2.3,2.3,50,0.00,OVC,FEW,0.00,WeatherDisplay:10.37,2013-03-22 23:59:00,
2013-03-22 18:04:00,45.1,27.6,30.00,ENE,78,3.5,3.5,50,0.00,OVC,FEW,0.00,WeatherDisplay:10.37,2013-03-23 00:04:00,
2013-03-22 18:09:00,45.0,28.4,30.01,ENE,78,2.3,2.3,52,0.00,OVC,FEW,0.00,WeatherDisplay:10.37,2013-03-23 00:09:00,
2013-03-22 18:14:00,45.0,27.5,30.00,NE,38,4.6,4.6,50,0.00,OVC,FEW,0.00,WeatherDisplay:10.37,2013-03-23 00:14:00,
2013-03-22 18:19:00,44.9,28.3,30.01,NE,51,2.3,2.3,52,0.00,OVC,FEW,0.00,WeatherDisplay:10.37,2013-03-23 00:19:00,
2013-03-22 18:24:00,44.9,28.3,30.01,East,90,2.3,2.3,52,0.00,OVC,FEW,0.00,WeatherDisplay:10.37,2013-03-23 00:24:00,
2013-03-22 18:29:00,44.9,28.3,30.01,ENE,71,2.3,2.3,52,0.00,OVC,FEW,0.00,WeatherDisplay:10.37,2013-03-23 00:29:00,
2013-03-22 18:34:00,44.9,27.4,30.00,NE,55,5.8,5.8,50,0.00,OVC,FEW,0.00,WeatherDisplay:10.37,2013-03-23 00:34:00,
2013-03-22 18:39:00,44.9,28.3,30.00,ESE,106,2.3,2.3,52,0.00,OVC,FEW,0.00,WeatherDisplay:10.37,2013-03-23 00:39:00,
2013-03-22 18:44:00,44.8,27.8,30.01,ENE,78,2.3,2.3,51,0.00,OVC,FEW,0.00,WeatherDisplay:10.37,2013-03-23 00:44:00,
2013-03-22 18:49:00,44.8,27.3,30.01,ENE,68,4.6,4.6,50,0.00,OVC,FEW,0.00,WeatherDisplay:10.37,2013-03-23 00:49:00,
2013-03-22 18:54:00,44.7,27.7,30.01,East,80,2.3,2.3,51,0.00,OVC,FEW,0.00,WeatherDisplay:10.37,2013-03-23 00:54:00,
2013-03-22 18:59:00,44.6,27.6,30.01,ENE,72,5.8,5.8,51,0.00,OVC,FEW,0.00,WeatherDisplay:10.37,2013-03-23 00:59:00,
2013-03-22 19:04:00,44.5,28.4,30.01,ENE,78,2.3,2.3,53,0.00,OVC,FEW,0.00,WeatherDisplay:10.37,2013-03-23 01:04:00,
2013-03-22 19:09:00,44.4,27.9,30.01,East,83,3.5,3.5,52,0.00,OVC,FEW,0.00,WeatherDisplay:10.37,2013-03-23 01:09:00,
2013-03-22 19:14:00,44.3,28.2,30.01,NNE,15,2.3,2.3,53,0.00,OVC,FEW,0.00,WeatherDisplay:10.37,2013-03-23 01:14:00,
2013-03-22 19:19:00,44.2,28.6,30.01,ENE,60,3.5,3.5,54,0.00,OVC,FEW,0.00,WeatherDisplay:10.37,2013-03-23 01:19:00,
2013-03-22 19:24:00,44.1,28.0,30.01,ENE,65,4.6,4.6,53,0.00,OVC,FEW,0.00,WeatherDisplay:10.37,2013-03-23 01:24:00,
2013-03-22 19:29:00,44.0,28.4,30.01,East,82,4.6,4.6,54,0.00,OVC,FEW,0.00,WeatherDisplay:10.37,2013-03-23 01:29:00,
2013-03-22 19:34:00,43.9,28.3,30.01,ENE,68,4.6,4.6,54,0.00,OVC,FEW,0.00,WeatherDisplay:10.37,2013-03-23 01:34:00,
2013-03-22 19:39:00,43.8,28.2,30.01,ENE,62,3.5,3.5,54,0.00,OVC,FEW,0.00,WeatherDisplay:10.37,2013-03-23 01:39:00,
2013-03-22 19:44:00,43.8,28.2,30.01,East,85,5.8,5.8,54,0.00,OVC,FEW,0.00,WeatherDisplay:10.37,2013-03-23 01:44:00,
2013-03-22 19:49:00,43.8,29.1,30.02,East,94,2.3,2.3,56,0.00,OVC,FEW,0.00,WeatherDisplay:10.37,2013-03-23 01:49:00,
2013-03-22 19:54:00,43.7,28.6,30.02,ENE,73,2.3,2.3,55,0.00,OVC,FEW,0.00,WeatherDisplay:10.37,2013-03-23 01:54:00,
2013-03-22 19:59:00,43.7,28.6,30.02,ENE,61,3.5,3.5,55,0.00,OVC,FEW,0.00,WeatherDisplay:10.37,2013-03-23 01:59:00,
2013-03-22 20:04:00,43.7,29.0,30.01,ENE,64,3.5,3.5,56,0.00,OVC,FEW,0.00,WeatherDisplay:10.37,2013-03-23 02:04:00,
2013-03-22 20:09:00,43.7,29.5,30.01,ESE,105,1.1,1.1,57,0.00,OVC,FEW,0.00,WeatherDisplay:10.37,2013-03-23 02:09:00,
2013-03-22 20:14:00,43.6,28.9,30.02,ENE,59,1.1,1.1,56,0.00,OVC,FEW,0.00,WeatherDisplay:10.37,2013-03-23 02:14:00,
2013-03-22 20:19:00,43.6,28.9,30.02,ESE,117,2.3,2.3,56,0.00,OVC,FEW,0.00,WeatherDisplay:10.37,2013-03-23 02:19:00,
2013-03-22 20:24:00,43.6,28.9,30.02,ENE,59,5.8,5.8,56,0.00,OVC,FEW,0.00,WeatherDisplay:10.37,2013-03-23 02:24:00,
2013-03-22 20:29:00,43.5,28.4,30.02,ENE,76,5.8,5.8,55,0.00,OVC,FEW,0.00,WeatherDisplay:10.37,2013-03-23 02:29:00,
2013-03-22 20:34:00,43.5,28.4,30.02,ENE,67,4.6,4.6,55,0.00,OVC,FEW,0.00,WeatherDisplay:10.37,2013-03-23 02:34:00,
2013-03-22 20:39:00,43.4,28.7,30.02,ENE,71,2.3,2.3,56,0.00,OVC,FEW,0.00,WeatherDisplay:10.37,2013-03-23 02:39:00,
2013-03-22 20:44:00,43.4,28.7,30.02,East,98,3.5,3.5,56,0.00,OVC,FEW,0.00,WeatherDisplay:10.37,2013-03-23 02:44:00,
2013-03-22 20:49:00,43.4,28.3,30.02,East,97,8.1,8.1,55,0.00,OVC,FEW,0.00,WeatherDisplay:10.37,2013-03-23 02:49:00,
2013-03-22 20:54:00,43.4,28.3,30.02,ENE,65,6.9,6.9,55,0.00,OVC,FEW,0.00,WeatherDisplay:10.37,2013-03-23 02:54:00,
2013-03-22 20:59:00,43.3,28.6,30.02,East,93,2.3,2.3,56,0.00,OVC,FEW,0.00,WeatherDisplay:10.37,2013-03-23 02:59:00,
2013-03-22 21:04:00,43.3,28.6,30.02,ENE,73,4.6,4.6,56,0.00,OVC,FEW,0.00,WeatherDisplay:10.37,2013-03-23 03:04:00,
2013-03-22 21:09:00,43.3,29.1,30.02,ENE,74,4.6,4.6,57,0.00,OVC,FEW,0.00,WeatherDisplay:10.37,2013-03-23 03:09:00,
2013-03-22 21:14:00,43.3,29.1,30.02,ENE,63,3.5,3.5,57,0.00,OVC,FEW,0.00,WeatherDisplay:10.37,2013-03-23 03:14:00,
2013-03-22 21:20:00,43.2,28.5,30.02,ENE,58,4.6,4.6,56,0.00,OVC,FEW,0.00,WeatherDisplay:10.37,2013-03-23 03:20:00,
2013-03-22 21:25:00,43.2,28.5,30.02,East,82,4.6,4.6,56,0.00,OVC,FEW,0.00,WeatherDisplay:10.37,2013-03-23 03:25:00,
2013-03-22 21:30:00,43.2,29.0,30.02,East,84,2.3,2.3,57,0.00,OVC,FEW,0.00,WeatherDisplay:10.37,2013-03-23 03:30:00,
2013-03-22 21:35:00,43.1,28.9,30.02,NE,41,3.5,3.5,57,0.00,OVC,FEW,0.00,WeatherDisplay:10.37,2013-03-23 03:35:00,
2013-03-22 21:40:00,43.1,28.9,30.02,NE,53,1.1,1.1,57,0.00,OVC,FEW,0.00,WeatherDisplay:10.37,2013-03-23 03:40:00,
2013-03-22 21:45:00,43.1,28.9,30.02,ENE,70,5.8,5.8,57,0.00,OVC,FEW,0.00,WeatherDisplay:10.37,2013-03-23 03:45:00,
2013-03-22 21:50:00,43.1,29.3,30.02,ENE,74,4.6,4.6,58,0.00,OVC,FEW,0.00,WeatherDisplay:10.37,2013-03-23 03:50:00,
2013-03-22 21:55:00,43.1,28.9,30.02,ENE,75,5.8,5.8,57,0.00,OVC,FEW,0.00,WeatherDisplay:10.37,2013-03-23 03:55:00,
2013-03-22 22:00:00,43.1,29.3,30.02,ENE,77,0.0,0.2,58,0.00,OVC,FEW,0.00,WeatherDisplay:10.37,2013-03-23 04:00:00,
2013-03-22 22:05:00,43.0,29.2,30.02,ENE,78,2.3,2.3,58,0.00,OVC,FEW,0.00,WeatherDisplay:10.37,2013-03-23 04:05:00,
2013-03-22 22:10:00,43.0,28.8,30.02,ENE,64,4.6,4.6,57,0.00,OVC,FEW,0.00,WeatherDisplay:10.37,2013-03-23 04:10:00,
2013-03-22 22:15:00,43.0,29.2,30.02,ENE,71,1.1,1.8,58,0.00,OVC,FEW,0.00,WeatherDisplay:10.37,2013-03-23 04:15:00,
2013-03-22 22:20:00,43.0,29.2,30.03,East,84,1.1,1.1,58,0.00,OVC,FEW,0.00,WeatherDisplay:10.37,2013-03-23 04:20:00,
2013-03-22 22:25:00,43.0,28.8,30.03,NE,55,5.8,5.8,57,0.00,OVC,FEW,0.00,WeatherDisplay:10.37,2013-03-23 04:25:00,
2013-03-22 22:31:00,42.9,28.7,30.03,ENE,71,3.5,3.5,57,0.00,OVC,FEW,0.00,WeatherDisplay:10.37,2013-03-23 04:31:00,
2013-03-22 22:36:00,42.9,29.5,30.03,ENE,71,2.3,2.3,59,0.00,OVC,FEW,0.00,WeatherDisplay:10.37,2013-03-23 04:36:00,
2013-03-22 22:41:00,42.9,30.8,30.02,NE,50,5.8,5.8,62,0.00,OVC,FEW,0.00,WeatherDisplay:10.37,2013-03-23 04:41:00,
2013-03-22 22:46:00,42.8,29.9,30.01,ESE,121,5.8,5.8,60,0.00,OVC,FEW,0.00,WeatherDisplay:10.37,2013-03-23 04:46:00,
2013-03-22 22:51:00,42.9,29.5,30.02,SE,131,0.0,0.5,59,0.00,OVC,FEW,0.00,WeatherDisplay:10.37,2013-03-23 04:51:00,
2013-03-22 22:56:00,42.8,29.9,30.02,ENE,69,2.3,0.0,60,0.00,OVC,FEW,0.00,WeatherDisplay:10.37,2013-03-23 04:56:00,
2013-03-22 23:01:00,42.8,29.9,30.01,NE,46,2.3,2.3,60,0.00,OVC,FEW,0.00,WeatherDisplay:10.37,2013-03-23 05:01:00,
2013-03-22 23:06:00,42.8,30.3,30.01,ENE,76,2.3,2.3,61,0.00,OVC,FEW,0.00,WeatherDisplay:10.37,2013-03-23 05:06:00,
2013-03-22 23:11:00,42.8,29.9,30.00,NE,41,3.5,3.5,60,0.00,OVC,FEW,0.00,WeatherDisplay:10.37,2013-03-23 05:11:00,
2013-03-22 23:16:00,42.7,29.4,30.01,ENE,57,0.0,0.0,59,0.00,OVC,FEW,0.00,WeatherDisplay:10.37,2013-03-23 05:16:00,
2013-03-22 23:22:00,42.7,29.8,30.01,ENE,57,0.0,0.0,60,0.00,OVC,FEW,0.00,WeatherDisplay:10.37,2013-03-23 05:22:00,
2013-03-22 23:27:00,42.7,29.8,30.02,North,355,2.3,2.3,60,0.00,OVC,FEW,0.00,WeatherDisplay:10.37,2013-03-23 05:27:00,
2013-03-22 23:32:00,42.8,30.3,30.02,North,355,0.0,0.0,61,0.00,OVC,FEW,0.00,WeatherDisplay:10.37,2013-03-23 05:32:00,
2013-03-22 23:37:00,42.7,30.6,30.01,ENE,64,2.3,2.3,62,0.00,OVC,FEW,0.00,WeatherDisplay:10.37,2013-03-23 05:37:00,
2013-03-22 23:42:00,42.7,29.8,30.02,East,98,1.1,0.0,60,0.00,OVC,FEW,0.00,WeatherDisplay:10.37,2013-03-23 05:42:00,
2013-03-22 23:47:00,42.7,29.8,30.02,East,98,1.1,1.1,60,0.00,OVC,FEW,0.00,WeatherDisplay:10.37,2013-03-23 05:47:00,
2013-03-22 23:52:00,42.7,29.4,30.02,ENE,67,2.3,2.3,59,0.00,OVC,FEW,0.00,WeatherDisplay:10.37,2013-03-23 05:52:00,
2013-03-22 23:57:00,42.6,29.7,30.02,ENE,77,2.3,2.3,60,0.00,OVC,FEW,0.00,WeatherDisplay:10.37,2013-03-23 05:57:00,